Terminal Aerodrome Forecast
Issued by NWS

Home | Current Version | Previous Version | Text Only | Print | Product List | Glossary On
Versions: 1 2 3 4 5 6 7 8 9 10 11 12 13 14
000
FTUS44 KLIX 051152 AAA
TAFGPT
TAF AMD
KGPT 051152Z 0512/0612 15010KT 2SM -RA SCT018 BKN070 OVC100
     FM051230 15003KT P6SM -TSRA BKN020CB BKN080 OVC120
      TEMPO 0514/0517 30012KT 5SM -TSRA BKN030CB OVC190
     FM051800 13004KT P6SM VCTS SCT040CB BKN250
      TEMPO 0519/0522 VRB15G20KT TSRA BKN020CB OVC060
     FM052300 19007KT P6SM OVC250
      TEMPO 0611/0612 P6SM -RA=

USA.gov is the U.S. government's official web portal to all federal, state and local government web resources and services.